createdAt,value
2019-06-04T00:00:02.111Z,20.3
2019-06-04T00:01:20.693Z,20.2
2019-06-04T00:02:03.085Z,20.1
2019-06-04T00:03:04.517Z,20.2
2019-06-04T00:04:06.555Z,20.1
2019-06-04T00:05:07.389Z,20.1
2019-06-04T00:06:08.917Z,20.1
2019-06-04T00:07:10.428Z,20.1
2019-06-04T00:08:12.205Z,20.2
2019-06-04T00:09:13.757Z,20.1
2019-06-04T00:10:15.195Z,20.1
2019-06-04T00:11:16.634Z,20.1
2019-06-04T00:12:18.134Z,20.2
2019-06-04T00:13:19.557Z,20.1
2019-06-04T00:14:20.975Z,20.2
2019-06-04T00:15:22.411Z,20.0
2019-06-04T00:16:23.868Z,20.1
2019-06-04T00:17:25.340Z,20.1
2019-06-04T00:18:27.326Z,20.0
2019-06-04T00:19:28.826Z,20.0
2019-06-04T00:20:30.311Z,20.1
2019-06-04T00:21:31.789Z,20.0
2019-06-04T00:22:33.280Z,20.0
2019-06-04T00:23:34.778Z,20.1
2019-06-04T00:24:36.445Z,20.1
2019-06-04T00:25:37.920Z,20.1
2019-06-04T00:26:39.377Z,20.0
2019-06-04T00:27:40.798Z,20.0
2019-06-04T00:28:42.237Z,20.0
2019-06-04T00:29:43.691Z,20.0
2019-06-04T00:30:45.111Z,20.1
2019-06-04T00:31:46.615Z,20.0
2019-06-04T00:32:48.069Z,20.0
2019-06-04T00:33:49.579Z,19.9
2019-06-04T00:34:51.042Z,20.1
2019-06-04T00:35:52.565Z,20.1
2019-06-04T00:36:54.025Z,20.0
2019-06-04T00:37:56.293Z,20.0
2019-06-04T00:38:58.259Z,20.1
2019-06-04T00:39:58.595Z,19.9
2019-06-04T00:41:00.793Z,20.0
2019-06-04T00:42:01.283Z,20.1
2019-06-04T00:43:03.079Z,20.0
2019-06-04T00:44:05.369Z,20.0
2019-06-04T00:45:05.627Z,20.1
2019-06-04T00:46:07.149Z,20.0
2019-06-04T00:47:09.360Z,20.0
2019-06-04T00:48:10.266Z,20.0
2019-06-04T00:49:11.750Z,20.0
2019-06-04T00:50:13.200Z,20.0
2019-06-04T00:51:14.667Z,20.0
2019-06-04T00:52:16.155Z,20.0
2019-06-04T00:53:17.649Z,20.1
2019-06-04T00:54:19.163Z,20.0
2019-06-04T00:55:20.665Z,20.1
2019-06-04T00:56:22.100Z,20.0
2019-06-04T00:57:23.635Z,20.1
2019-06-04T00:58:25.144Z,20.0
2019-06-04T00:59:26.634Z,20.0
2019-06-04T01:00:28.170Z,20.0
2019-06-04T01:01:29.589Z,20.1
2019-06-04T01:02:31.091Z,20.0
2019-06-04T01:03:32.597Z,20.1
2019-06-04T01:04:34.061Z,20.0
2019-06-04T01:05:35.576Z,20.1
2019-06-04T01:06:37.021Z,20.0
2019-06-04T01:07:38.462Z,20.0
2019-06-04T01:08:40.005Z,20.0
2019-06-04T01:09:41.461Z,20.0
2019-06-04T01:10:42.994Z,19.9
2019-06-04T01:11:44.531Z,19.9
2019-06-04T01:12:46.038Z,20.0
2019-06-04T01:13:47.492Z,19.9
2019-06-04T01:14:48.918Z,19.9
2019-06-04T01:15:50.368Z,19.9
2019-06-04T01:16:51.874Z,19.9
2019-06-04T01:17:53.317Z,19.9
2019-06-04T01:18:54.751Z,19.9
2019-06-04T01:19:56.168Z,19.8
2019-06-04T01:20:58.769Z,19.9
2019-06-04T01:21:59.051Z,19.8
2019-06-04T01:23:01.572Z,19.9
2019-06-04T01:24:03.272Z,19.9
2019-06-04T01:25:03.504Z,19.8
2019-06-04T01:26:05.646Z,19.8
2019-06-04T01:27:07.512Z,19.8
2019-06-04T01:28:08.049Z,19.8
2019-06-04T01:29:10.069Z,19.8
2019-06-04T01:30:11.831Z,19.7
2019-06-04T01:31:13.396Z,19.6
2019-06-04T01:32:21.090Z,19.7
2019-06-04T01:33:16.312Z,19.7
2019-06-04T01:34:17.801Z,19.7
2019-06-04T01:35:19.222Z,19.6
2019-06-04T01:36:20.681Z,19.6
2019-06-04T01:37:22.136Z,19.6
2019-06-04T01:38:23.575Z,19.6
2019-06-04T01:39:25.081Z,19.5
2019-06-04T01:40:26.542Z,19.6
2019-06-04T01:41:28.032Z,19.5
2019-06-04T01:42:29.523Z,19.5
2019-06-04T01:43:31.037Z,19.5
2019-06-04T01:44:32.486Z,19.6
2019-06-04T01:45:33.950Z,19.5
2019-06-04T01:46:35.418Z,19.5
2019-06-04T01:47:36.884Z,19.5
2019-06-04T01:48:38.324Z,19.5
2019-06-04T01:49:39.793Z,19.5
2019-06-04T01:50:41.280Z,19.5
2019-06-04T01:51:42.719Z,19.4
2019-06-04T01:52:44.131Z,19.5
2019-06-04T01:53:45.576Z,19.4
2019-06-04T01:54:47.046Z,19.5
2019-06-04T01:55:48.487Z,19.4
2019-06-04T01:56:49.961Z,19.4
2019-06-04T01:57:51.523Z,19.4
2019-06-04T01:58:52.836Z,19.4
2019-06-04T01:59:54.240Z,19.4
2019-06-04T02:00:55.662Z,19.4
2019-06-04T02:01:57.119Z,19.4
2019-06-04T02:02:58.713Z,19.4
2019-06-04T02:04:00.148Z,19.3
2019-06-04T02:05:01.685Z,19.4
2019-06-04T02:06:03.869Z,19.3
2019-06-04T02:07:05.594Z,19.3
2019-06-04T02:08:06.605Z,19.3
2019-06-04T02:09:08.173Z,19.3
2019-06-04T02:10:10.205Z,19.2
2019-06-04T02:11:10.539Z,19.3
2019-06-04T02:12:15.535Z,19.3
2019-06-04T02:13:13.248Z,19.2
2019-06-04T02:14:15.132Z,19.2
2019-06-04T02:15:15.974Z,19.2
2019-06-04T02:16:23.988Z,19.2
2019-06-04T02:17:18.891Z,19.0
2019-06-04T02:18:20.310Z,19.2
2019-06-04T02:19:21.754Z,19.2
2019-06-04T02:20:23.202Z,19.1
2019-06-04T02:21:24.640Z,19.1
2019-06-04T02:22:26.076Z,19.0
2019-06-04T02:23:27.508Z,19.0
2019-06-04T02:24:29.001Z,19.1
2019-06-04T02:25:30.474Z,19.0
2019-06-04T02:26:31.869Z,19.0
2019-06-04T02:27:33.361Z,18.9
2019-06-04T02:28:34.867Z,18.9
2019-06-04T02:29:36.318Z,18.9
2019-06-04T02:30:37.822Z,18.8
2019-06-04T02:31:39.223Z,18.8
2019-06-04T02:33:05.345Z,18.7
2019-06-04T02:33:42.174Z,18.7
2019-06-04T02:34:44.356Z,18.8
2019-06-04T02:35:45.831Z,18.7
2019-06-04T02:36:47.310Z,18.7
2019-06-04T02:37:48.770Z,18.6
2019-06-04T02:38:50.241Z,18.6
2019-06-04T02:39:51.797Z,18.6
2019-06-04T02:40:53.260Z,18.6
2019-06-04T02:41:54.680Z,18.5
2019-06-04T02:42:56.112Z,18.5
2019-06-04T02:43:58.370Z,18.5
2019-06-04T02:44:59.861Z,18.5
2019-06-04T02:46:04.359Z,18.5
2019-06-04T02:47:02.828Z,18.5
2019-06-04T02:48:04.492Z,18.4
2019-06-04T02:49:06.862Z,18.4
2019-06-04T02:50:07.993Z,18.4
2019-06-04T02:51:08.989Z,18.4
2019-06-04T02:52:11.115Z,18.4
2019-06-04T02:53:11.691Z,18.4
2019-06-04T02:54:13.720Z,18.4
2019-06-04T02:55:15.659Z,18.4
2019-06-04T02:56:16.631Z,18.3
2019-06-04T02:57:17.913Z,18.2
2019-06-04T02:58:19.180Z,18.3
2019-06-04T02:59:20.447Z,18.3
2019-06-04T03:00:21.904Z,18.2
2019-06-04T03:01:23.454Z,18.3
2019-06-04T03:02:24.891Z,18.2
2019-06-04T03:03:30.643Z,18.1
2019-06-04T03:04:27.746Z,18.1
2019-06-04T03:05:29.278Z,18.1
2019-06-04T03:06:30.801Z,18.0
2019-06-04T03:07:32.215Z,18.1
2019-06-04T03:08:33.685Z,18.1
2019-06-04T03:09:35.074Z,18.0
2019-06-04T03:10:36.926Z,18.0
2019-06-04T03:11:37.930Z,18.0
2019-06-04T03:12:39.406Z,18.0
2019-06-04T03:13:40.858Z,18.0
2019-06-04T03:14:42.327Z,18.0
2019-06-04T03:15:43.777Z,18.0
2019-06-04T03:16:45.226Z,18.0
2019-06-04T03:17:46.744Z,18.0
2019-06-04T03:18:48.193Z,17.9
2019-06-04T03:19:49.657Z,18.0
2019-06-04T03:20:51.328Z,17.9
2019-06-04T03:21:52.720Z,17.9
2019-06-04T03:22:54.316Z,17.9
2019-06-04T03:23:55.874Z,18.0
2019-06-04T03:24:57.333Z,17.9
2019-06-04T03:25:58.897Z,17.9
2019-06-04T03:27:00.397Z,17.9
2019-06-04T03:28:02.097Z,17.9
2019-06-04T03:29:03.585Z,17.8
2019-06-04T03:30:05.124Z,17.8
2019-06-04T03:31:06.629Z,17.8
2019-06-04T03:32:08.060Z,17.8
2019-06-04T03:33:10.476Z,17.7
2019-06-04T03:34:13.073Z,17.8
2019-06-04T03:35:14.365Z,17.7
2019-06-04T03:36:16.641Z,17.7
2019-06-04T03:37:18.866Z,17.7
2019-06-04T03:38:19.278Z,17.7
2019-06-04T03:39:20.757Z,17.6
2019-06-04T03:40:23.278Z,17.7
2019-06-04T03:41:23.716Z,17.5
2019-06-04T03:42:25.202Z,17.6
2019-06-04T03:43:26.706Z,17.7
2019-06-04T03:44:28.141Z,17.7
2019-06-04T03:45:29.692Z,17.7
2019-06-04T03:46:31.216Z,17.6
2019-06-04T03:47:32.716Z,17.7
2019-06-04T03:48:34.248Z,17.6
2019-06-04T03:49:35.781Z,17.7
2019-06-04T03:50:37.223Z,17.6
2019-06-04T03:51:38.734Z,17.6
2019-06-04T03:52:40.206Z,17.6
2019-06-04T03:53:44.533Z,17.6
2019-06-04T03:54:43.183Z,17.6
2019-06-04T03:55:44.698Z,17.6
2019-06-04T03:56:46.192Z,17.6
2019-06-04T03:57:47.727Z,17.6
2019-06-04T03:58:49.238Z,17.6
2019-06-04T03:59:50.810Z,17.5
2019-06-04T04:00:52.904Z,17.5
2019-06-04T04:01:54.400Z,17.5
2019-06-04T04:02:56.242Z,17.5
2019-06-04T04:04:07.709Z,17.5
2019-06-04T04:05:00.209Z,17.6
2019-06-04T04:06:01.668Z,17.5
2019-06-04T04:07:03.181Z,17.6
2019-06-04T04:08:05.510Z,17.6
2019-06-04T04:09:07.073Z,17.6
2019-06-04T04:10:08.543Z,17.6
2019-06-04T04:11:10.133Z,17.6
2019-06-04T04:12:11.692Z,17.7
2019-06-04T04:13:13.184Z,17.7
2019-06-04T04:14:14.722Z,17.7
2019-06-04T04:15:16.647Z,17.7
2019-06-04T04:16:18.854Z,17.8
2019-06-04T04:17:19.154Z,17.8
2019-06-04T04:18:20.905Z,17.8
2019-06-04T04:19:23.195Z,17.8
2019-06-04T04:20:23.404Z,17.9
2019-06-04T04:21:25.256Z,17.8
2019-06-04T04:22:26.449Z,17.9
2019-06-04T04:23:28.925Z,17.9
2019-06-04T04:24:30.415Z,17.9
2019-06-04T04:25:31.841Z,17.9
2019-06-04T04:26:33.369Z,17.9
2019-06-04T04:27:34.771Z,17.9
2019-06-04T04:28:36.265Z,17.9
2019-06-04T04:29:37.761Z,18.0
2019-06-04T04:30:39.278Z,17.9
2019-06-04T04:31:40.806Z,18.1
2019-06-04T04:32:43.002Z,18.0
2019-06-04T04:33:44.624Z,18.1
2019-06-04T04:34:46.162Z,18.1
2019-06-04T04:35:47.641Z,18.2
2019-06-04T04:36:49.111Z,18.1
2019-06-04T04:37:50.720Z,18.1
2019-06-04T04:38:52.257Z,18.2
2019-06-04T04:39:53.673Z,18.3
2019-06-04T04:40:55.113Z,18.2
2019-06-04T04:41:56.558Z,18.2
2019-06-04T04:45:46.190Z,18.3
2019-06-04T04:46:47.771Z,18.3
2019-06-04T04:47:49.311Z,18.4
2019-06-04T04:48:50.800Z,18.4
2019-06-04T04:49:52.371Z,18.3
2019-06-04T04:50:53.979Z,18.4
2019-06-04T04:51:55.625Z,18.4
2019-06-04T04:52:57.198Z,18.4
2019-06-04T04:53:58.857Z,18.4
2019-06-04T04:55:00.433Z,18.4
2019-06-04T04:56:01.966Z,18.4
2019-06-04T04:57:03.510Z,18.4
2019-06-04T04:58:05.082Z,18.5
2019-06-04T04:59:06.628Z,18.5
2019-06-04T05:00:08.101Z,18.5
2019-06-04T05:01:09.595Z,18.5
2019-06-04T05:02:11.188Z,18.4
2019-06-04T05:03:13.010Z,18.5
2019-06-04T05:04:14.318Z,18.6
2019-06-04T05:05:15.817Z,18.6
2019-06-04T05:06:17.335Z,18.6
2019-06-04T05:07:20.267Z,18.6
2019-06-04T05:08:20.398Z,18.5
2019-06-04T05:09:22.031Z,18.6
2019-06-04T05:10:24.236Z,18.5
2019-06-04T05:11:26.337Z,18.6
2019-06-04T05:12:26.491Z,18.6
2019-06-04T05:13:28.717Z,18.6
2019-06-04T05:14:29.391Z,18.5
2019-06-04T05:15:31.629Z,18.5
2019-06-04T05:16:32.497Z,18.5
2019-06-04T05:17:33.858Z,18.5
2019-06-04T05:18:35.797Z,18.4
2019-06-04T05:19:37.413Z,18.5
2019-06-04T05:20:39.011Z,18.5
2019-06-04T05:21:40.663Z,18.5
2019-06-04T05:22:42.202Z,18.5
2019-06-04T05:23:43.903Z,18.5
2019-06-04T05:24:45.436Z,18.6
2019-06-04T05:25:46.952Z,18.5
2019-06-04T05:26:48.506Z,18.5
2019-06-04T05:27:49.893Z,18.6
2019-06-04T05:28:51.440Z,18.6
2019-06-04T05:29:52.824Z,18.6
2019-06-04T05:30:54.268Z,18.6
2019-06-04T05:32:36.338Z,18.6
2019-06-04T05:33:38.480Z,18.6
2019-06-04T05:34:41.251Z,18.5
2019-06-04T05:35:43.426Z,18.6
2019-06-04T05:36:45.477Z,18.6
2019-06-04T05:37:47.244Z,18.5
2019-06-04T05:38:48.956Z,18.6
2019-06-04T05:39:52.272Z,18.6
2019-06-04T05:40:53.787Z,18.6
2019-06-04T05:41:55.458Z,18.6
2019-06-04T05:42:57.132Z,18.6
2019-06-04T05:43:58.833Z,18.6
2019-06-04T05:45:00.444Z,18.7
2019-06-04T05:46:02.130Z,18.6
2019-06-04T05:47:03.764Z,18.7
2019-06-04T05:48:05.474Z,18.7
2019-06-04T05:49:08.744Z,18.7
2019-06-04T05:50:11.383Z,18.8
2019-06-04T05:51:15.401Z,18.9
2019-06-04T05:52:18.280Z,18.9
2019-06-04T05:53:22.822Z,18.9
2019-06-04T05:54:24.641Z,18.9
2019-06-04T05:55:26.903Z,18.9
2019-06-04T05:56:31.786Z,18.9
2019-06-04T05:57:33.736Z,19.0
2019-06-04T05:58:33.945Z,19.0
2019-06-04T05:59:35.579Z,19.0
2019-06-04T06:00:38.370Z,19.1
2019-06-04T06:01:47.538Z,19.1
2019-06-04T06:02:49.692Z,19.1
2019-06-04T06:03:51.497Z,19.1
2019-06-04T06:04:53.225Z,19.1
2019-06-04T06:05:55.027Z,19.2
2019-06-04T06:06:56.830Z,19.2
2019-06-04T06:07:58.817Z,19.3
2019-06-04T06:09:00.770Z,19.3
2019-06-04T06:10:02.632Z,19.4
2019-06-04T06:11:05.727Z,19.4
2019-06-04T06:12:08.530Z,19.5
2019-06-04T06:13:10.392Z,19.5
2019-06-04T06:14:12.193Z,19.4
2019-06-04T06:15:14.579Z,19.5
2019-06-04T06:16:17.229Z,19.6
2019-06-04T06:17:19.331Z,19.6
2019-06-04T06:18:21.452Z,19.7
2019-06-04T06:19:24.767Z,19.8
2019-06-04T06:20:25.367Z,19.8
2019-06-04T06:21:27.330Z,19.8
2019-06-04T06:22:30.457Z,19.8
2019-06-04T06:23:32.279Z,19.9
2019-06-04T06:24:35.116Z,20.0
2019-06-04T06:25:40.234Z,20.0
2019-06-04T06:26:38.496Z,20.0
2019-06-04T06:27:40.126Z,20.2
2019-06-04T06:28:42.321Z,20.2
2019-06-04T06:29:44.224Z,20.1
2019-06-04T06:30:46.080Z,20.3
2019-06-04T06:31:48.292Z,20.2
2019-06-04T06:32:50.260Z,20.4
2019-06-04T06:33:52.174Z,20.4
2019-06-04T06:34:54.140Z,20.5
2019-06-04T06:35:55.844Z,20.5
2019-06-04T06:36:57.688Z,20.6
2019-06-04T06:37:59.450Z,20.6
2019-06-04T06:39:01.313Z,20.6
2019-06-04T06:40:02.964Z,20.6
2019-06-04T06:41:04.482Z,20.7
2019-06-04T06:42:06.426Z,20.7
2019-06-04T06:43:08.190Z,20.7
2019-06-04T06:44:09.834Z,20.7
2019-06-04T06:45:11.390Z,20.7
2019-06-04T06:46:13.007Z,20.8
2019-06-04T06:47:14.929Z,20.8
2019-06-04T06:48:16.687Z,20.9
2019-06-04T06:49:18.431Z,20.8
2019-06-04T06:50:20.157Z,21.0
2019-06-04T06:51:21.901Z,21.0
2019-06-04T06:52:24.060Z,21.0
2019-06-04T06:53:25.832Z,21.0
2019-06-04T06:54:27.618Z,20.9
2019-06-04T06:55:30.783Z,21.1
2019-06-04T06:56:32.798Z,21.1
2019-06-04T06:57:32.806Z,21.2
2019-06-04T06:58:37.208Z,21.3
2019-06-04T06:59:36.933Z,21.4
2019-06-04T07:00:37.417Z,21.4
2019-06-04T07:01:39.462Z,21.4
2019-06-04T07:02:41.053Z,21.5
2019-06-04T07:03:42.728Z,21.4
2019-06-04T07:04:44.754Z,21.5
2019-06-04T07:05:59.580Z,21.5
2019-06-04T07:06:48.985Z,21.5
2019-06-04T07:07:50.600Z,21.7
2019-06-04T07:08:52.412Z,21.7
2019-06-04T07:09:54.542Z,21.7
2019-06-04T07:10:57.626Z,21.8
2019-06-04T07:12:00.532Z,21.8
2019-06-04T07:13:02.634Z,21.8
2019-06-04T07:14:04.802Z,21.8
2019-06-04T07:15:06.726Z,21.8
2019-06-04T07:16:08.729Z,21.8
2019-06-04T07:17:14.360Z,21.8
2019-06-04T07:18:13.213Z,21.9
2019-06-04T07:19:15.438Z,21.9
2019-06-04T07:20:17.390Z,21.9
2019-06-04T07:21:19.782Z,22.0
2019-06-04T07:22:21.925Z,22.0
2019-06-04T07:23:23.785Z,22.1
2019-06-04T07:24:25.660Z,22.1
2019-06-04T07:25:27.591Z,22.1
2019-06-04T07:26:29.813Z,22.1
2019-06-04T07:27:32.031Z,22.1
2019-06-04T07:28:35.302Z,22.2
2019-06-04T07:29:36.760Z,22.1
2019-06-04T07:30:38.448Z,22.2
2019-06-04T07:31:41.310Z,22.3
2019-06-04T07:32:43.422Z,22.2
2019-06-04T07:33:44.974Z,22.2
2019-06-04T07:34:47.073Z,22.2
2019-06-04T07:35:49.432Z,22.2
2019-06-04T07:36:52.509Z,22.2
2019-06-04T07:37:54.504Z,22.2
2019-06-04T07:38:56.733Z,22.3
2019-06-04T07:40:05.932Z,22.3
2019-06-04T07:41:00.421Z,22.3
2019-06-04T07:42:02.905Z,22.4
2019-06-04T07:43:05.419Z,22.4
2019-06-04T07:44:07.463Z,22.5
2019-06-04T07:45:10.448Z,22.7
2019-06-04T07:46:12.807Z,22.7
2019-06-04T07:47:15.417Z,22.9
2019-06-04T07:48:32.118Z,22.8
2019-06-04T07:49:19.969Z,22.9
2019-06-04T07:50:22.337Z,22.9
2019-06-04T07:51:23.823Z,23.0
2019-06-04T07:52:25.952Z,23.1
2019-06-04T07:53:28.452Z,23.1
2019-06-04T07:54:31.467Z,23.2
2019-06-04T07:55:34.167Z,23.1
2019-06-04T07:56:36.061Z,23.2
2019-06-04T07:57:39.083Z,23.2
2019-06-04T07:58:40.583Z,23.3
2019-06-04T07:59:42.687Z,23.3
2019-06-04T08:00:45.842Z,23.3
2019-06-04T08:02:05.858Z,23.2
2019-06-04T08:02:48.601Z,23.3
2019-06-04T08:03:50.503Z,23.3
2019-06-04T08:04:52.677Z,23.4
2019-06-04T08:05:54.512Z,23.5
2019-06-04T08:06:58.764Z,23.4
2019-06-04T08:07:58.854Z,23.4
2019-06-04T08:09:00.624Z,23.6
2019-06-04T08:10:02.745Z,23.5
2019-06-04T08:11:04.632Z,23.5
2019-06-04T08:12:07.320Z,23.6
2019-06-04T08:13:09.532Z,23.7
2019-06-04T08:14:11.498Z,23.7
2019-06-04T08:15:13.401Z,23.7
2019-06-04T08:16:15.153Z,23.8
2019-06-04T08:17:17.365Z,23.8
2019-06-04T08:18:19.444Z,23.8
2019-06-04T08:19:21.502Z,23.9
2019-06-04T08:20:24.326Z,24.0
2019-06-04T08:21:42.024Z,24.0
2019-06-04T08:22:28.874Z,23.9
2019-06-04T08:23:30.698Z,24.0
2019-06-04T08:24:33.839Z,24.0
2019-06-04T08:25:36.618Z,24.1
2019-06-04T08:26:38.201Z,24.2
2019-06-04T08:27:40.479Z,24.2
2019-06-04T08:28:42.429Z,24.1
2019-06-04T08:29:42.851Z,24.1
2019-06-04T08:30:44.710Z,24.0
2019-06-04T08:31:47.203Z,24.1
2019-06-04T08:32:48.914Z,24.1
2019-06-04T08:33:50.656Z,24.2
2019-06-04T08:34:52.181Z,24.2
2019-06-04T08:35:53.708Z,24.2
2019-06-04T08:37:07.582Z,24.3
2019-06-04T08:37:57.534Z,24.4
2019-06-04T08:38:59.205Z,24.4
2019-06-04T08:40:01.242Z,24.4
2019-06-04T08:41:02.888Z,24.4
2019-06-04T08:42:05.652Z,24.4
2019-06-04T08:43:07.451Z,24.4
2019-06-04T08:44:09.695Z,24.4
2019-06-04T08:45:11.891Z,24.5
2019-06-04T08:46:13.995Z,24.5
2019-06-04T08:47:16.453Z,24.5
2019-06-04T08:48:18.517Z,24.4
2019-06-04T08:49:20.291Z,24.4
2019-06-04T08:50:22.214Z,24.3
2019-06-04T08:51:24.168Z,24.4
2019-06-04T08:52:25.820Z,24.5
2019-06-04T08:53:28.184Z,24.5
2019-06-04T08:54:29.937Z,24.4
2019-06-04T08:55:31.613Z,24.5
2019-06-04T08:56:33.486Z,24.4
2019-06-04T08:57:37.280Z,24.5
2019-06-04T08:58:38.869Z,24.5
2019-06-04T08:59:39.475Z,24.4
2019-06-04T09:00:42.210Z,24.5
2019-06-04T09:01:43.583Z,24.5
2019-06-04T09:02:45.921Z,24.6
2019-06-04T09:03:47.584Z,24.5
2019-06-04T09:04:50.563Z,24.5
2019-06-04T09:05:51.317Z,24.5
2019-06-04T09:06:53.603Z,24.6
2019-06-04T09:07:55.211Z,24.7
2019-06-04T09:08:57.065Z,24.7
2019-06-04T09:10:05.224Z,24.8
2019-06-04T09:11:00.941Z,24.7
2019-06-04T09:12:02.954Z,24.7
2019-06-04T09:13:05.954Z,24.7
2019-06-04T09:14:07.570Z,24.6
2019-06-04T09:15:09.259Z,24.7
2019-06-04T09:16:11.003Z,24.6
2019-06-04T09:17:13.643Z,24.7
2019-06-04T09:18:15.676Z,24.7
2019-06-04T09:19:17.054Z,24.7
2019-06-04T09:20:19.126Z,24.8
2019-06-04T09:21:21.400Z,24.8
2019-06-04T09:22:23.421Z,24.8
2019-06-04T09:23:25.286Z,25.0
2019-06-04T09:24:27.457Z,25.1
2019-06-04T09:25:29.238Z,25.2
2019-06-04T09:26:31.085Z,25.3
2019-06-04T09:27:33.254Z,25.5
2019-06-04T09:28:35.060Z,25.6
2019-06-04T09:29:36.769Z,25.6
2019-06-04T09:30:39.715Z,25.6
2019-06-04T09:31:41.336Z,25.7
2019-06-04T09:32:43.256Z,25.7
2019-06-04T09:33:45.574Z,25.7
2019-06-04T09:34:47.614Z,25.8
2019-06-04T09:35:50.168Z,25.8
2019-06-04T09:36:50.796Z,25.9
2019-06-04T09:38:02.672Z,26.1
2019-06-04T09:38:54.282Z,26.1
2019-06-04T09:39:55.938Z,26.1
2019-06-04T09:40:58.160Z,26.3
2019-06-04T09:41:59.782Z,26.3
2019-06-04T09:43:02.170Z,26.3
2019-06-04T09:44:04.492Z,26.3
2019-06-04T09:45:06.453Z,26.4
2019-06-04T09:46:07.968Z,26.4
2019-06-04T09:47:10.201Z,26.4
2019-06-04T09:48:12.181Z,26.5
2019-06-04T09:49:19.787Z,26.5
2019-06-04T09:50:18.837Z,26.4
2019-06-04T09:51:20.307Z,26.5
2019-06-04T09:52:22.644Z,26.6
2019-06-04T09:53:25.304Z,26.5
2019-06-04T09:54:27.727Z,26.6
2019-06-04T09:55:29.422Z,26.7
2019-06-04T09:56:31.293Z,26.8
2019-06-04T09:57:33.521Z,26.9
2019-06-04T09:58:35.250Z,27.1
2019-06-04T09:59:37.670Z,27.1
2019-06-04T10:00:41.040Z,27.2
2019-06-04T10:01:46.392Z,27.3
2019-06-04T10:02:47.089Z,27.3
2019-06-04T10:03:47.362Z,27.3
2019-06-04T10:04:49.615Z,27.4
2019-06-04T10:05:51.799Z,27.4
2019-06-04T10:06:52.957Z,27.5
2019-06-04T10:08:10.799Z,27.5
2019-06-04T10:08:56.770Z,27.4
2019-06-04T10:09:58.842Z,27.5
2019-06-04T10:11:00.650Z,27.5
2019-06-04T10:12:05.797Z,27.5
2019-06-04T10:13:05.085Z,27.6
2019-06-04T10:14:06.758Z,27.6
2019-06-04T10:15:08.381Z,27.7
2019-06-04T10:16:10.127Z,27.7
2019-06-04T10:17:11.803Z,27.7
2019-06-04T10:18:13.550Z,27.7
2019-06-04T10:19:15.449Z,27.7
2019-06-04T10:20:17.622Z,27.8
2019-06-04T10:21:19.381Z,27.8
2019-06-04T10:22:21.293Z,27.8
2019-06-04T10:23:22.901Z,27.8
2019-06-04T10:24:24.706Z,27.9
2019-06-04T10:25:26.719Z,27.9
2019-06-04T10:26:28.443Z,28.1
2019-06-04T10:27:29.928Z,28.1
2019-06-04T10:28:32.147Z,28.1
2019-06-04T10:29:33.841Z,28.2
2019-06-04T10:30:35.455Z,28.2
2019-06-04T10:31:37.777Z,28.2
2019-06-04T10:32:39.539Z,28.4
2019-06-04T10:33:41.136Z,28.3
2019-06-04T10:34:43.143Z,28.4
2019-06-04T10:35:44.696Z,28.4
2019-06-04T10:37:04.619Z,28.4
2019-06-04T10:37:48.955Z,28.5
2019-06-04T10:38:49.413Z,28.5
2019-06-04T10:39:51.248Z,28.5
2019-06-04T10:40:54.010Z,28.5
2019-06-04T10:41:55.465Z,28.5
2019-06-04T10:42:56.129Z,28.5
2019-06-04T10:43:57.728Z,28.6
2019-06-04T10:45:05.854Z,28.6
2019-06-04T10:46:01.974Z,28.7
2019-06-04T10:47:03.690Z,28.9
2019-06-04T10:48:05.940Z,28.9
2019-06-04T10:49:07.667Z,28.8
2019-06-04T10:50:09.439Z,28.8
2019-06-04T10:51:14.270Z,28.7
2019-06-04T10:52:13.010Z,28.7
2019-06-04T10:53:15.276Z,28.7
2019-06-04T10:54:17.025Z,28.6
2019-06-04T10:55:18.875Z,28.6
2019-06-04T10:56:21.362Z,28.4
2019-06-04T10:57:23.836Z,28.3
2019-06-04T10:58:27.472Z,28.3
2019-06-04T10:59:29.218Z,28.2
2019-06-04T11:00:32.754Z,28.1
2019-06-04T11:01:33.284Z,28.1
2019-06-04T11:02:34.895Z,28.0
2019-06-04T11:03:36.933Z,28.0
2019-06-04T11:04:38.779Z,28.0
2019-06-04T11:05:40.670Z,27.9
2019-06-04T11:06:42.534Z,27.9
2019-06-04T11:07:44.439Z,27.9
2019-06-04T11:08:50.082Z,27.9
2019-06-04T11:09:48.675Z,27.8
2019-06-04T11:10:51.730Z,27.8
2019-06-04T11:11:52.807Z,27.7
2019-06-04T11:12:56.442Z,27.8
2019-06-04T11:14:00.425Z,27.8
2019-06-04T11:15:00.515Z,27.8
2019-06-04T11:16:01.388Z,27.9
2019-06-04T11:17:03.254Z,27.9
2019-06-04T11:18:05.631Z,27.9
2019-06-04T11:19:07.269Z,27.8
2019-06-04T11:20:09.576Z,27.9
2019-06-04T11:21:12.152Z,27.9
2019-06-04T11:22:14.048Z,27.8
2019-06-04T11:23:16.066Z,27.9
2019-06-04T11:24:17.682Z,27.9
2019-06-04T11:25:20.977Z,27.9
2019-06-04T11:26:23.227Z,27.8
2019-06-04T11:27:25.379Z,27.8
2019-06-04T11:28:28.366Z,27.9
2019-06-04T11:29:30.628Z,27.9
2019-06-04T11:30:32.801Z,27.8
2019-06-04T11:31:39.553Z,28.0
2019-06-04T11:32:38.549Z,28.0
2019-06-04T11:33:41.408Z,28.0
2019-06-04T11:34:43.268Z,28.1
2019-06-04T11:35:45.128Z,28.1
2019-06-04T11:36:48.403Z,28.1
2019-06-04T11:37:50.445Z,28.1
2019-06-04T11:39:13.199Z,28.0
2019-06-04T11:39:59.190Z,28.0
2019-06-04T11:41:01.617Z,28.0
2019-06-04T11:42:03.532Z,27.9
2019-06-04T11:43:11.295Z,27.9
2019-06-04T11:44:07.501Z,27.9
2019-06-04T11:45:23.159Z,27.9
2019-06-04T11:46:11.577Z,27.8
2019-06-04T11:47:13.418Z,27.8
2019-06-04T11:48:20.923Z,27.7
2019-06-04T11:49:17.414Z,27.7
2019-06-04T11:50:19.279Z,27.7
2019-06-04T11:51:21.244Z,27.6
2019-06-04T11:52:23.439Z,27.6
2019-06-04T11:53:25.237Z,27.6
2019-06-04T11:54:27.769Z,27.4
2019-06-04T11:55:29.500Z,27.4
2019-06-04T11:56:31.488Z,27.4
2019-06-04T11:57:33.222Z,27.3
2019-06-04T11:58:35.171Z,27.3
2019-06-04T11:59:37.146Z,27.2
2019-06-04T12:00:39.258Z,27.2
2019-06-04T12:01:41.455Z,27.0
2019-06-04T12:02:43.181Z,27.2
2019-06-04T12:03:45.597Z,27.1
2019-06-04T12:04:48.072Z,27.1
2019-06-04T12:05:50.366Z,27.1
2019-06-04T12:06:52.855Z,27.1
2019-06-04T12:07:56.378Z,27.1
2019-06-04T12:08:57.322Z,27.1
2019-06-04T12:09:59.065Z,26.9
2019-06-04T12:11:03.339Z,27.0
2019-06-04T12:12:37.895Z,27.1
2019-06-04T12:13:06.054Z,27.0
2019-06-04T12:14:08.133Z,27.0
2019-06-04T12:15:10.786Z,27.1
2019-06-04T12:16:13.062Z,27.0
2019-06-04T12:17:15.873Z,27.1
2019-06-04T12:18:18.280Z,27.2
2019-06-04T12:19:20.817Z,27.3
2019-06-04T12:20:23.011Z,27.3
2019-06-04T12:21:25.153Z,27.2
2019-06-04T12:22:28.138Z,27.3
2019-06-04T12:23:31.655Z,27.3
2019-06-04T12:24:32.706Z,27.3
2019-06-04T12:25:35.505Z,27.4
2019-06-04T12:26:37.438Z,27.4
2019-06-04T12:27:38.868Z,27.5
2019-06-04T12:28:40.813Z,27.6
2019-06-04T12:29:42.680Z,27.6
2019-06-04T12:30:44.611Z,27.5
2019-06-04T12:31:47.330Z,27.7
2019-06-04T12:32:49.248Z,27.6
2019-06-04T12:33:50.957Z,27.8
2019-06-04T12:34:52.617Z,27.9
2019-06-04T12:35:54.432Z,27.9
2019-06-04T12:36:56.358Z,28.0
2019-06-04T12:37:59.718Z,28.2
2019-06-04T12:39:01.270Z,28.4
2019-06-04T12:40:02.460Z,28.5
2019-06-04T12:41:05.479Z,28.7
2019-06-04T12:42:06.270Z,28.9
2019-06-04T12:43:08.483Z,29.0
2019-06-04T12:44:14.257Z,29.2
2019-06-04T12:45:12.869Z,29.3
2019-06-04T12:46:16.033Z,29.3
2019-06-04T12:47:21.939Z,29.3
2019-06-04T12:48:20.054Z,29.4
2019-06-04T12:49:21.864Z,29.5
2019-06-04T12:50:23.942Z,29.7
2019-06-04T12:51:26.123Z,29.8
2019-06-04T12:52:28.232Z,29.8
2019-06-04T12:53:30.132Z,29.9
2019-06-04T12:54:32.164Z,30.0
2019-06-04T12:55:34.883Z,30.1
2019-06-04T12:56:36.809Z,30.2
2019-06-04T12:57:38.384Z,30.3
2019-06-04T12:58:40.418Z,30.5
2019-06-04T12:59:42.445Z,30.7
2019-06-04T13:00:44.492Z,30.8
2019-06-04T13:01:46.611Z,30.9
2019-06-04T13:02:48.517Z,31.1
2019-06-04T13:03:50.585Z,31.2
2019-06-04T13:04:53.156Z,31.4
2019-06-04T13:05:54.787Z,31.3
2019-06-04T13:06:56.556Z,31.4
2019-06-04T13:07:59.578Z,31.5
2019-06-04T13:09:00.491Z,31.6
2019-06-04T13:10:21.789Z,31.6
2019-06-04T13:11:05.048Z,31.6
2019-06-04T13:12:10.093Z,31.7
2019-06-04T13:13:09.276Z,31.7
2019-06-04T13:14:11.457Z,31.7
2019-06-04T13:15:13.654Z,31.7
2019-06-04T13:16:15.526Z,31.5
2019-06-04T13:17:17.590Z,31.6
2019-06-04T13:18:23.062Z,31.7
2019-06-04T13:19:21.169Z,31.5
2019-06-04T13:20:29.943Z,31.5
2019-06-04T13:21:25.511Z,31.6
2019-06-04T13:22:27.465Z,31.6
2019-06-04T13:23:29.260Z,31.6
2019-06-04T13:24:31.028Z,31.6
2019-06-04T13:25:33.508Z,31.6
2019-06-04T13:26:35.884Z,31.6
2019-06-04T13:27:38.276Z,31.7
2019-06-04T13:28:39.808Z,31.6
2019-06-04T13:29:45.266Z,31.7
2019-06-04T13:30:43.266Z,31.6
2019-06-04T13:31:46.865Z,31.6
2019-06-04T13:32:49.383Z,31.6
2019-06-04T13:33:51.250Z,31.6
2019-06-04T13:34:53.181Z,31.7
2019-06-04T13:35:57.326Z,31.7
2019-06-04T13:37:00.416Z,31.9
2019-06-04T13:38:02.500Z,32.1
2019-06-04T13:39:14.894Z,32.2
2019-06-04T13:40:07.264Z,32.2
2019-06-04T13:41:10.930Z,32.3
2019-06-04T13:42:11.298Z,32.4
2019-06-04T13:43:13.393Z,32.6
2019-06-04T13:44:16.262Z,32.7
2019-06-04T13:45:18.271Z,32.8
2019-06-04T13:46:20.042Z,32.9